Hinton, OK

1:33 AM CDT on August 22, 2014 (GMT -0500)
El Reno | Change Station
CLOSE
Current Station
Airport
Location: El Reno,
Elevation: 1417 ft
Nearby Weather Stations

Elev 1417 ft 35.47 °N, 98.01 °W | Updated 38 minutes ago

Clear
Clear
81 °F
Feels Like 82 °F
N
14
Wind Variable Wind from South

Today
High -- | Low -- °F
--% Chance of Precip.
Yesterday
High -- | Low -- °F
Precip. -- in
6:58 AM 8:13 PM
Waning Crescent, 10% visible
Pressure 29.95 in
Visibility 10.0 miles
Clouds Clear
Heat Index 82 °F
Dew Point 63 °F
Humidity 54%
Rainfall 0.00 in
Snow Depth Not available.
UV 0 out of 12
Pollen 9.80 out of 12
Air Quality Not available.
Flu Activity Not available.
METAR KRQO 220555Z AUTO 17012KT 10SM CLR 27/17 A2995 RMK AO2

More Conditions Fewer Conditions

Pressure 29.95 in
Visibility 10.0 miles
Clouds Clear
Heat Index 82 °F
Dew Point 63 °F
Humidity 54%
Rainfall 0.00 in
Snow Depth Not available.
UV 0 out of 12
Pollen 9.80 out of 12
Air Quality Not available.
Flu Activity Not available.
METAR KRQO 220555Z AUTO 17012KT 10SM CLR 27/17 A2995 RMK AO2

More Conditions Fewer Conditions

10-Day Weather Forecast

Almanac

Astronomy

Aug. 22, 2014 Rise Set
Actual Time 6:58 AM CDT 8:13 PM CDT
Civil Twilight 6:31 AM CDT 8:40 PM CDT
Nautical Twilight 5:59 AM CDT 9:11 PM CDT
Astronomical Twilight 5:26 AM CDT 9:44 PM CDT
Moon 4:24 AM CDT 6:21 PM CDT
Length of Visible Light 14h 08m
Length of Day
13h 15m
Tomorrow will be 2m 4s shorter.
Waning Crescent, 10% of the Moon is Illuminated
Today
Waning Crescent
Aug 25
New
Sep 2
First Quarter
Sep 8
Full
Sep 15
Last Quarter

Today's Extremes

State Highs State Lows

Community

WunderPhotos

Upload Photos

1,746,131 photos uploaded!

Nearby

Snow Depth

Station Depth Elevation
No new snow has been reported.

Earthquake Activity

City Distance Mag. Time & Date
Medford, Oklahoma 99 miles 3.4 10:59 AM CDT
2014-08-17
Perry, Oklahoma 83 miles 3.0 8:43 AM CDT
2014-08-17
Medford, Oklahoma 97 miles 2.7 2:28 AM CDT
2014-08-17
Medford, Oklahoma 99 miles 3.5 1:31 AM CDT
2014-08-17
Minimum magnitude displayed is 2.5.

Coastal Water Temperatures

Place Temperature
No Stations Reporting

Nearby Weather Stations